Terminal Aerodrome Forecast
Issued by NWS

Home | Current Version | Previous Version | Text Only | Print | Product List | Glossary On
Versions: 1 2 3 4 5 6 7 8 9 10 11 12
000
FTUS41 KCAR 251721
TAFHUL
TAF
KHUL 251721Z 2518/2618 18006KT P6SM BKN200
     FM260200 16004KT 6SM SHRA OVC050
     FM260330 15005KT 4SM -SHRA BR OVC020
     FM260700 18005KT 4SM BR OVC005
     FM261200 25005KT P6SM VCSH BKN025
     FM261600 26005KT P6SM VCSH BKN040=

USA.gov is the U.S. government's official web portal to all federal, state and local government web resources and services.